Time;durP1;ratioP1;P1;durP2;ratioP2;P2;SDS_P1;SDS_P2;PMS_P1;PMS_P2;Temp;Humidity;BMP_temperature;BMP_pressure;BME280_temperature;BME280_humidity;BME280_pressure;Samples;Min_cycle;Max_cycle;Signal;HPM_P1;HPM_P2
2022/12/01 00:00:38;;;;;;;27.77;16.30;;;;;;;8.28;56.77;97958.16;5021534;28;20183;-68
2022/12/01 00:03:03;;;;;;;25.70;15.63;;;;;;;8.29;57.14;97951.97;5017451;28;20211;-69
2022/12/01 00:05:29;;;;;;;31.80;16.50;;;;;;;8.28;57.00;97952.94;5016388;28;20202;-68
2022/12/01 00:07:56;;;;;;;27.03;15.13;;;;;;;8.21;57.26;97959.56;5025123;28;20175;-69
2022/12/01 00:10:27;;;;;;;25.80;15.30;;;;;;;8.19;56.61;97948.44;5012940;28;20211;-69
2022/12/01 00:12:58;;;;;;;27.40;15.23;;;;;;;8.18;57.56;97946.78;5019770;28;20451;-69
2022/12/01 00:15:42;;;;;;;28.33;16.40;;;;;;;8.19;56.93;97954.47;5026580;28;20751;-68
2022/12/01 00:18:08;;;;;;;24.27;15.30;;;;;;;8.22;56.64;97954.25;5017236;28;20489;-68
2022/12/01 00:20:33;;;;;;;29.77;16.53;;;;;;;8.17;57.52;97948.53;5018815;28;20428;-71
2022/12/01 00:22:59;;;;;;;28.63;17.10;;;;;;;8.15;57.25;97955.66;5053784;28;20971;-68
2022/12/01 00:25:24;;;;;;;31.30;17.10;;;;;;;8.15;57.70;97953.88;5032742;28;20211;-68
2022/12/01 00:27:51;;;;;;;35.33;18.90;;;;;;;8.15;57.74;97953.88;5017304;28;20192;-68
2022/12/01 00:30:18;;;;;;;30.80;17.77;;;;;;;8.15;57.84;97951.28;5026827;28;20192;-68
2022/12/01 00:32:44;;;;;;;27.83;16.53;;;;;;;8.21;57.85;97952.56;5029759;28;20466;-69
2022/12/01 00:35:09;;;;;;;30.23;18.27;;;;;;;8.26;57.12;97957.44;5019421;28;20459;-69
2022/12/01 00:37:35;;;;;;;32.47;16.90;;;;;;;8.20;57.46;97953.53;5034606;28;20589;-69
2022/12/01 00:40:00;;;;;;;30.50;17.27;;;;;;;8.21;57.68;97952.56;5024506;28;20195;-68
2022/12/01 00:42:26;;;;;;;34.47;18.20;;;;;;;8.19;57.89;97953.66;5034231;28;20670;-69
2022/12/01 00:44:52;;;;;;;37.80;18.87;;;;;;;8.21;57.59;97951.72;5027451;28;20199;-69
2022/12/01 00:47:18;;;;;;;29.93;17.73;;;;;;;8.20;57.97;97963.13;5055868;28;20274;-69
2022/12/01 00:49:46;;;;;;;34.40;18.63;;;;;;;8.26;57.49;97949.59;5033436;28;20193;-68
2022/12/01 00:52:13;;;;;;;27.80;16.97;;;;;;;8.26;57.37;97950.41;5039308;28;20190;-69
2022/12/01 00:54:39;;;;;;;30.93;16.63;;;;;;;8.30;57.37;97953.66;5039812;28;20429;-69
2022/12/01 00:57:05;;;;;;;30.20;17.17;;;;;;;8.35;56.66;97943.66;5036963;28;20923;-68
2022/12/01 00:59:30;;;;;;;31.93;17.20;;;;;;;8.29;56.73;97951.97;5042812;28;20183;-69
2022/12/01 01:01:56;;;;;;;31.43;18.20;;;;;;;8.33;57.21;97944.72;5031341;28;20803;-67
2022/12/01 01:04:21;;;;;;;33.83;18.03;;;;;;;8.32;56.78;97954.34;5033591;28;20271;-68
2022/12/01 01:06:47;;;;;;;31.20;18.03;;;;;;;8.27;57.05;97953.88;5042802;28;20218;-68
2022/12/01 01:09:13;;;;;;;28.40;17.37;;;;;;;8.30;57.28;97956.25;5030638;28;20564;-68
2022/12/01 01:11:38;;;;;;;28.60;16.73;;;;;;;8.31;56.61;97955.31;5027951;28;20256;-68
2022/12/01 01:14:05;;;;;;;29.37;17.50;;;;;;;8.32;56.67;97958.75;5049615;28;20458;-68
2022/12/01 01:16:31;;;;;;;28.23;16.53;;;;;;;8.28;57.09;97956.34;5038669;28;20202;-68
2022/12/01 01:18:57;;;;;;;33.27;16.47;;;;;;;8.21;56.86;97957.81;5044085;28;20418;-68
2022/12/01 01:21:23;;;;;;;29.10;17.00;;;;;;;8.19;56.21;97956.25;5041627;28;20207;-68
2022/12/01 01:23:50;;;;;;;31.17;16.87;;;;;;;8.20;56.45;97960.50;5032907;28;20795;-68
2022/12/01 01:26:18;;;;;;;29.63;16.17;;;;;;;8.24;56.57;97961.94;5025737;28;20455;-68
2022/12/01 01:28:44;;;;;;;29.43;16.97;;;;;;;8.23;57.01;97965.50;5032974;28;20430;-68
2022/12/01 01:31:12;;;;;;;26.17;15.67;;;;;;;8.18;56.13;97965.88;5029079;28;20478;-69
2022/12/01 01:33:38;;;;;;;28.37;16.93;;;;;;;8.18;56.27;97967.66;5031712;28;20462;-68
2022/12/01 01:36:04;;;;;;;25.90;17.10;;;;;;;8.16;56.47;97965.16;5023677;28;20517;-68
2022/12/01 01:38:30;;;;;;;25.40;15.30;;;;;;;8.12;56.15;97964.56;5027982;28;20183;-68
2022/12/01 01:40:55;;;;;;;26.00;16.30;;;;;;;8.10;56.20;97963.84;5029219;28;20433;-68
2022/12/01 01:43:43;;;;;;;27.50;16.07;;;;;;;8.05;56.23;97971.22;5020658;28;20427;-68
2022/12/01 01:46:12;;;;;;;28.87;16.07;;;;;;;8.06;56.18;97970.25;5026689;28;20709;-68
2022/12/01 01:48:37;;;;;;;30.23;16.60;;;;;;;8.00;56.35;97961.09;5039920;28;20433;-67
2022/12/01 01:51:03;;;;;;;32.70;18.00;;;;;;;7.97;57.18;97971.78;5042759;28;20449;-67
2022/12/01 01:53:29;;;;;;;28.90;15.90;;;;;;;8.02;57.38;97968.81;5037208;28;20459;-67
2022/12/01 01:55:55;;;;;;;30.67;16.50;;;;;;;8.05;57.51;97978.19;5044270;28;20286;-67
2022/12/01 01:58:20;;;;;;;28.30;16.70;;;;;;;8.06;57.20;97972.88;5031686;28;20431;-70
2022/12/01 02:00:46;;;;;;;29.83;16.83;;;;;;;8.09;56.72;97966.59;5028401;28;20561;-68
2022/12/01 02:03:14;;;;;;;31.30;15.87;;;;;;;8.03;56.25;97970.50;5044395;28;20581;-70
2022/12/01 02:05:40;;;;;;;26.77;15.97;;;;;;;8.05;56.43;97968.59;5019450;28;20205;-70
2022/12/01 02:08:11;;;;;;;29.30;16.17;;;;;;;8.08;56.20;97970.94;5033511;28;20509;-69
2022/12/01 02:10:58;;;;;;;28.60;16.40;;;;;;;8.04;56.07;97959.09;5030957;28;20427;-69
2022/12/01 02:13:42;;;;;;;27.70;16.60;;;;;;;8.03;55.75;97965.28;5044456;28;21793;-70
2022/12/01 02:16:25;;;;;;;24.10;15.13;;;;;;;8.03;55.96;97954.84;5028567;28;20448;-69
2022/12/01 02:18:56;;;;;;;28.07;16.43;;;;;;;8.04;55.36;97960.88;5036709;28;20432;-68
2022/12/01 02:21:30;;;;;;;27.90;16.80;;;;;;;7.96;55.49;97951.00;5045535;28;20427;-69
2022/12/01 02:24:18;;;;;;;27.53;16.50;;;;;;;7.94;55.29;97955.53;5032958;28;20432;-69
2022/12/01 02:27:00;;;;;;;30.73;17.33;;;;;;;7.94;55.05;97961.56;5038678;28;20574;-70
2022/12/01 02:29:55;;;;;;;28.57;16.73;;;;;;;7.93;55.72;97959.09;5027247;28;20413;-68
2022/12/01 02:32:38;;;;;;;30.10;16.40;;;;;;;7.90;55.73;97954.09;5035965;28;20525;-69
2022/12/01 02:35:22;;;;;;;26.77;16.43;;;;;;;7.88;55.64;97956.00;5022580;28;20538;-69
2022/12/01 02:38:02;;;;;;;27.33;15.60;;;;;;;7.89;55.82;97953.25;5033691;28;20457;-70
2022/12/01 02:40:38;;;;;;;24.70;15.63;;;;;;;7.93;55.96;97953.88;5027334;28;20421;-69
2022/12/01 02:43:13;;;;;;;28.63;16.47;;;;;;;7.89;55.55;97948.03;5042101;28;20427;-69
2022/12/01 02:45:49;;;;;;;28.63;16.43;;;;;;;7.91;55.33;97951.38;5021113;28;20450;-69
2022/12/01 02:48:35;;;;;;;30.03;17.50;;;;;;;7.96;55.62;97953.63;5051589;28;20800;-68
2022/12/01 02:51:09;;;;;;;28.23;16.70;;;;;;;7.96;56.08;97948.41;5021983;28;20435;-68
2022/12/01 02:53:35;;;;;;;28.60;15.57;;;;;;;7.97;55.77;97950.06;5043514;28;20484;-69
2022/12/01 02:56:06;;;;;;;29.17;18.00;;;;;;;7.94;55.73;97950.31;5048763;28;20437;-68
2022/12/01 02:58:31;;;;;;;28.40;16.37;;;;;;;7.96;56.59;97949.25;5033668;28;20195;-67
2022/12/01 03:01:05;;;;;;;30.83;16.83;;;;;;;7.97;56.13;97950.91;5021362;28;20968;-70
2022/12/01 03:03:50;;;;;;;27.57;15.73;;;;;;;8.02;55.59;97957.53;5033882;28;20181;-69
2022/12/01 03:06:25;;;;;;;29.13;16.40;;;;;;;7.96;55.12;97962.31;5041458;28;20438;-69
2022/12/01 03:09:06;;;;;;;26.37;15.57;;;;;;;7.94;55.32;97958.97;5029034;28;20436;-70
2022/12/01 03:11:38;;;;;;;29.80;17.73;;;;;;;7.89;54.80;97949.84;5034196;28;20434;-71
2022/12/01 03:14:35;;;;;;;29.27;16.70;;;;;;;7.82;54.97;97952.88;5049933;28;20491;-69
2022/12/01 03:17:03;;;;;;;28.20;16.37;;;;;;;7.74;55.33;97950.03;5016955;28;20566;-70
2022/12/01 03:19:39;;;;;;;26.17;15.50;;;;;;;7.66;55.17;97941.97;5026375;28;20425;-69
2022/12/01 03:22:09;;;;;;;26.30;15.23;;;;;;;7.63;55.46;97942.19;5019604;28;20526;-69
2022/12/01 03:24:35;;;;;;;26.43;14.77;;;;;;;7.59;55.28;97945.97;5035748;28;20432;-69
2022/12/01 03:27:02;;;;;;;27.43;16.00;;;;;;;7.57;55.79;97940.03;5026130;28;20886;-69
2022/12/01 03:29:35;;;;;;;27.93;16.50;;;;;;;7.58;56.01;97949.53;5033804;28;20302;-69
2022/12/01 03:32:24;;;;;;;28.83;16.80;;;;;;;7.58;55.83;97944.31;5023247;28;20447;-69
2022/12/01 03:34:55;;;;;;;29.60;16.20;;;;;;;7.63;56.12;97945.63;5023557;28;20801;-68
2022/12/01 03:37:26;;;;;;;26.23;16.53;;;;;;;7.57;55.83;97946.09;5030106;28;20816;-69
2022/12/01 03:39:56;;;;;;;27.47;17.00;;;;;;;7.58;55.41;97947.75;5031126;28;20483;-69
2022/12/01 03:42:25;;;;;;;27.43;16.83;;;;;;;7.55;56.18;97945.38;5029458;28;20462;-68
2022/12/01 03:44:53;;;;;;;26.90;16.27;;;;;;;7.60;56.24;97945.03;5021705;28;20513;-68
2022/12/01 03:47:21;;;;;;;25.70;16.30;;;;;;;7.55;55.28;97949.78;5053840;28;20463;-69
2022/12/01 03:49:49;;;;;;;29.30;15.83;;;;;;;7.50;55.73;97948.34;5015083;28;20437;-69
2022/12/01 03:52:20;;;;;;;27.20;15.80;;;;;;;7.53;55.92;97948.13;5022052;28;20525;-69
2022/12/01 03:55:00;;;;;;;27.13;15.80;;;;;;;7.47;55.59;97953.78;5030789;28;20419;-69
2022/12/01 03:57:30;;;;;;;29.20;16.50;;;;;;;7.47;56.16;97956.38;5056668;28;20429;-69
2022/12/01 03:59:56;;;;;;;30.53;15.97;;;;;;;7.49;55.66;97946.66;5030633;28;20422;-68
2022/12/01 04:02:26;;;;;;;30.20;16.07;;;;;;;7.48;55.80;97955.44;5036442;28;20476;-68
2022/12/01 04:04:52;;;;;;;30.40;16.63;;;;;;;7.45;55.40;97952.22;5031547;28;20175;-68
2022/12/01 04:07:17;;;;;;;26.13;15.63;;;;;;;7.44;55.99;97956.59;5040307;28;20429;-68
2022/12/01 04:09:43;;;;;;;33.97;17.33;;;;;;;7.42;56.25;97955.91;5035108;28;20183;-68
2022/12/01 04:12:28;;;;;;;27.20;15.80;;;;;;;7.46;55.67;97952.09;5034136;28;20180;-68
2022/12/01 04:14:58;;;;;;;28.93;16.67;;;;;;;7.46;56.15;97957.31;5030439;28;20179;-70
2022/12/01 04:17:25;;;;;;;28.10;16.17;;;;;;;7.43;55.72;97962.78;5022989;28;20426;-69
2022/12/01 04:19:51;;;;;;;26.97;16.50;;;;;;;7.45;55.93;97958.28;5032484;28;20510;-68
2022/12/01 04:22:16;;;;;;;26.47;16.37;;;;;;;7.48;56.16;97952.84;5031729;28;20475;-69
2022/12/01 04:24:41;;;;;;;26.80;15.47;;;;;;;7.50;55.79;97956.16;5034493;28;20270;-69
2022/12/01 04:27:07;;;;;;;28.13;16.57;;;;;;;7.55;55.42;97955.81;5025569;28;20191;-69
2022/12/01 04:29:32;;;;;;;27.43;15.97;;;;;;;7.53;55.47;97958.53;5034539;28;20581;-70
2022/12/01 04:31:58;;;;;;;27.50;16.10;;;;;;;7.52;55.51;97951.66;5025454;28;20203;-68
2022/12/01 04:34:23;;;;;;;28.40;16.40;;;;;;;7.51;55.47;97960.44;5016930;28;20294;-69
2022/12/01 04:36:49;;;;;;;27.80;16.90;;;;;;;7.50;55.76;97963.13;5029587;28;20719;-68
2022/12/01 04:39:14;;;;;;;27.40;15.87;;;;;;;7.57;55.90;97966.13;5016629;28;20184;-70
2022/12/01 04:41:40;;;;;;;26.70;15.37;;;;;;;7.56;55.24;97956.66;5025638;28;20188;-69
2022/12/01 04:44:05;;;;;;;29.60;16.60;;;;;;;7.57;56.17;97964.34;5014559;28;20254;-69
2022/12/01 04:46:31;;;;;;;26.40;14.83;;;;;;;7.56;55.68;97957.47;5018238;28;20207;-66
2022/12/01 04:48:56;;;;;;;27.47;16.70;;;;;;;7.62;56.11;97961.41;5034582;28;20190;-68
2022/12/01 04:51:22;;;;;;;30.70;17.90;;;;;;;7.63;55.47;97957.84;5031640;28;20574;-67
2022/12/01 04:53:48;;;;;;;27.53;16.77;;;;;;;7.67;54.95;97961.91;5028693;28;20211;-70
2022/12/01 04:56:14;;;;;;;28.50;16.70;;;;;;;7.64;55.46;97960.34;5042074;28;20207;-69
2022/12/01 04:58:39;;;;;;;26.97;16.40;;;;;;;7.63;55.57;97955.25;5040314;28;20461;-67
2022/12/01 05:01:10;;;;;;;26.30;15.87;;;;;;;7.63;56.08;97952.63;5023847;28;20187;-67
2022/12/01 05:03:37;;;;;;;25.17;15.53;;;;;;;7.68;55.08;97950.53;5035121;28;20190;-68
2022/12/01 05:06:08;;;;;;;27.63;15.57;;;;;;;7.70;56.01;97953.81;5045208;28;20449;-69
2022/12/01 05:08:34;;;;;;;24.00;16.03;;;;;;;7.65;54.87;97956.78;5043085;28;20430;-69
2022/12/01 05:11:00;;;;;;;29.27;17.27;;;;;;;7.72;55.86;97953.72;5036193;28;20992;-70
2022/12/01 05:13:25;;;;;;;28.23;16.57;;;;;;;7.71;55.66;97962.50;5046751;28;20217;-68
2022/12/01 05:15:51;;;;;;;28.90;16.30;;;;;;;7.71;55.57;97959.88;5029112;28;20705;-68
2022/12/01 05:18:16;;;;;;;26.90;15.90;;;;;;;7.75;55.53;97967.38;5025165;28;20377;-68
2022/12/01 05:20:57;;;;;;;29.60;17.30;;;;;;;7.67;54.93;97959.28;5041321;28;20186;-68
2022/12/01 05:23:31;;;;;;;31.93;17.23;;;;;;;7.72;55.96;97962.38;5046683;28;20217;-69
2022/12/01 05:25:56;;;;;;;26.10;15.90;;;;;;;7.76;55.53;97963.81;5041271;28;20454;-68
2022/12/01 05:28:24;;;;;;;29.20;16.77;;;;;;;7.80;54.95;97960.03;5035761;28;20442;-68
2022/12/01 05:30:50;;;;;;;29.03;17.17;;;;;;;7.72;55.38;97961.56;5043011;28;20513;-67
2022/12/01 05:33:16;;;;;;;26.33;16.07;;;;;;;7.78;56.13;97966.28;5039570;28;20470;-69
2022/12/01 05:35:41;;;;;;;33.47;18.10;;;;;;;7.87;55.89;97967.38;5044762;28;20457;-68
2022/12/01 05:38:07;;;;;;;28.73;17.03;;;;;;;7.84;55.61;97961.44;5036800;28;20442;-69
2022/12/01 05:40:33;;;;;;;29.87;18.10;;;;;;;7.88;55.08;97958.59;5031857;28;20550;-69
2022/12/01 05:42:58;;;;;;;28.07;17.37;;;;;;;7.73;55.25;97964.03;5034069;28;20229;-69
2022/12/01 05:45:24;;;;;;;30.87;16.37;;;;;;;7.64;56.14;97959.50;5035392;28;20324;-68
2022/12/01 05:47:56;;;;;;;27.77;16.97;;;;;;;7.73;55.77;97953.59;5031308;28;20188;-68
2022/12/01 05:50:22;;;;;;;29.50;16.50;;;;;;;7.79;55.57;97963.59;5038885;28;20484;-67
2022/12/01 05:52:48;;;;;;;29.00;15.50;;;;;;;7.76;55.03;97962.97;5036280;28;20480;-69
2022/12/01 05:55:13;;;;;;;29.07;17.03;;;;;;;7.76;55.17;97958.59;5032720;28;20447;-69
2022/12/01 05:57:39;;;;;;;29.13;17.00;;;;;;;7.76;55.02;97966.41;5041120;28;20264;-69
2022/12/01 06:00:05;;;;;;;26.87;15.77;;;;;;;7.75;54.64;97975.19;5041675;28;20237;-68
2022/12/01 06:02:31;;;;;;;30.10;17.23;;;;;;;7.67;54.63;97980.16;5039302;28;20191;-69
2022/12/01 06:04:56;;;;;;;30.07;17.30;;;;;;;7.65;55.37;97979.44;5040357;28;20433;-69
2022/12/01 06:07:24;;;;;;;31.17;18.17;;;;;;;7.65;54.81;97984.66;5044713;28;20182;-69
2022/12/01 06:09:50;;;;;;;30.40;18.33;;;;;;;7.58;54.72;97973.00;5040571;28;20187;-68
2022/12/01 06:12:15;;;;;;;25.90;17.07;;;;;;;7.55;55.08;97975.88;5040452;28;20537;-69
2022/12/01 06:14:41;;;;;;;33.37;19.60;;;;;;;7.51;55.43;97973.47;5040942;28;20968;-69
2022/12/01 06:17:06;;;;;;;33.93;18.80;;;;;;;7.44;55.41;97969.66;5020320;28;20252;-69
2022/12/01 06:19:32;;;;;;;31.57;18.57;;;;;;;7.46;55.33;97983.41;5048986;28;20265;-68
2022/12/01 06:21:57;;;;;;;32.47;18.63;;;;;;;7.46;55.84;97978.19;5038531;28;20313;-68
2022/12/01 06:24:23;;;;;;;32.23;18.10;;;;;;;7.46;54.96;97972.97;5048196;28;20548;-69
2022/12/01 06:26:48;;;;;;;31.70;18.17;;;;;;;7.45;55.63;97976.53;5040741;28;20207;-68
2022/12/01 06:29:14;;;;;;;28.87;17.73;;;;;;;7.47;55.76;97973.81;5036043;28;20195;-69
2022/12/01 06:31:39;;;;;;;29.93;18.33;;;;;;;7.49;55.43;97977.97;5040869;28;20185;-68
2022/12/01 06:34:05;;;;;;;33.30;19.33;;;;;;;7.47;55.88;97985.06;5042454;28;20234;-69
2022/12/01 06:36:31;;;;;;;31.23;18.60;;;;;;;7.45;55.75;97986.16;5043705;28;20341;-69
2022/12/01 06:38:56;;;;;;;33.80;18.30;;;;;;;7.41;56.18;97989.91;5045689;28;20277;-69
2022/12/01 06:41:22;;;;;;;32.57;18.93;;;;;;;7.35;55.92;97991.19;5045731;28;21001;-69
2022/12/01 06:43:47;;;;;;;33.73;20.27;;;;;;;7.32;55.91;97991.41;5028805;28;20183;-68
2022/12/01 06:46:13;;;;;;;33.20;19.80;;;;;;;7.35;56.12;97999.03;5020591;28;20230;-69
2022/12/01 06:48:38;;;;;;;32.73;20.13;;;;;;;7.30;56.02;98001.97;5047416;28;20266;-68
2022/12/01 06:51:04;;;;;;;36.80;20.10;;;;;;;7.27;55.74;97999.56;5042026;28;20195;-69
2022/12/01 06:53:29;;;;;;;34.13;20.20;;;;;;;7.26;55.79;97995.31;5030633;28;20332;-69
2022/12/01 06:55:59;;;;;;;33.17;19.20;;;;;;;7.21;55.85;97995.63;5050164;28;20290;-68
2022/12/01 06:58:25;;;;;;;28.83;18.17;;;;;;;7.23;56.41;98000.75;5044593;28;20188;-69
2022/12/01 07:00:50;;;;;;;34.20;19.23;;;;;;;7.20;55.90;98008.81;5045578;28;20428;-72
2022/12/01 07:03:16;;;;;;;34.87;19.90;;;;;;;7.22;56.56;98004.31;5046920;28;20656;-70
2022/12/01 07:05:41;;;;;;;35.73;20.37;;;;;;;7.27;56.73;98003.97;5045872;28;20282;-69
2022/12/01 07:08:07;;;;;;;39.83;19.93;;;;;;;7.34;56.81;97999.97;5043095;28;20281;-69
2022/12/01 07:10:32;;;;;;;36.70;21.30;;;;;;;7.36;56.70;98004.16;5038407;28;20186;-69
2022/12/01 07:12:57;;;;;;;32.30;19.00;;;;;;;7.41;56.44;98006.41;5049827;28;20559;-69
2022/12/01 07:15:23;;;;;;;40.90;22.93;;;;;;;7.46;56.99;98011.28;5045010;28;21413;-66
2022/12/01 07:17:49;;;;;;;34.10;19.93;;;;;;;7.47;57.08;98005.94;5039022;28;20215;-70
2022/12/01 07:20:14;;;;;;;35.70;19.83;;;;;;;7.55;57.09;98012.38;5046200;28;20194;-71
2022/12/01 07:22:41;;;;;;;31.13;19.20;;;;;;;7.49;56.48;98017.09;5013364;28;20430;-70
2022/12/01 07:25:08;;;;;;;34.30;19.60;;;;;;;7.47;56.29;98013.78;5021599;28;20236;-70
2022/12/01 07:27:33;;;;;;;31.87;19.47;;;;;;;7.47;56.35;98016.38;5023617;28;20429;-71
2022/12/01 07:29:59;;;;;;;29.93;19.80;;;;;;;7.47;56.35;98008.56;5023799;28;20435;-69
2022/12/01 07:32:24;;;;;;;30.53;19.10;;;;;;;7.45;56.97;98015.66;5034124;28;20195;-68
2022/12/01 07:34:49;;;;;;;30.30;19.30;;;;;;;7.50;56.10;98021.38;5039979;28;20620;-68
2022/12/01 07:37:15;;;;;;;35.20;18.80;;;;;;;7.52;56.47;98019.50;5029948;28;20608;-70
2022/12/01 07:39:40;;;;;;;34.37;19.53;;;;;;;7.56;56.55;98019.28;5028543;28;20186;-68
2022/12/01 07:42:06;;;;;;;31.77;18.67;;;;;;;7.55;56.24;98020.22;5045523;28;20191;-69
2022/12/01 07:44:31;;;;;;;35.03;19.70;;;;;;;7.51;55.23;98015.22;5033095;28;20206;-69
2022/12/01 07:46:57;;;;;;;35.37;19.07;;;;;;;7.49;56.26;98019.72;5036288;28;20211;-69
2022/12/01 07:49:22;;;;;;;29.87;18.10;;;;;;;7.46;56.69;98025.16;5021544;28;20207;-72
2022/12/01 07:51:48;;;;;;;32.53;20.33;;;;;;;7.52;56.22;98027.31;5032096;28;20180;-70
2022/12/01 07:54:13;;;;;;;32.83;19.67;;;;;;;7.55;56.15;98025.44;5030451;28;20211;-71
2022/12/01 07:56:39;;;;;;;30.67;18.40;;;;;;;7.51;56.08;98019.59;4995763;28;20211;-70
2022/12/01 07:59:05;;;;;;;36.63;20.43;;;;;;;7.50;56.64;98023.13;5037117;28;20191;-70
2022/12/01 08:01:30;;;;;;;33.63;20.80;;;;;;;7.46;56.43;98022.53;5032241;28;20190;-70
2022/12/01 08:03:57;;;;;;;35.20;19.77;;;;;;;7.42;56.72;98023.72;5036204;28;20180;-70
2022/12/01 08:06:23;;;;;;;37.03;20.23;;;;;;;7.51;56.23;98033.47;5037982;28;20259;-69
2022/12/01 08:08:49;;;;;;;34.03;18.60;;;;;;;7.53;56.29;98033.34;5024523;28;21000;-68
2022/12/01 08:11:17;;;;;;;29.50;18.83;;;;;;;7.50;56.11;98026.59;5034955;28;20457;-72
2022/12/01 08:13:42;;;;;;;32.73;19.80;;;;;;;7.49;56.17;98024.94;5034339;28;20199;-71
2022/12/01 08:16:10;;;;;;;38.60;20.43;;;;;;;7.46;56.65;98032.16;5005983;28;20983;-71
2022/12/01 08:18:40;;;;;;;32.17;19.20;;;;;;;7.52;56.31;98035.16;5033498;28;20181;-70
2022/12/01 08:21:06;;;;;;;32.17;18.90;;;;;;;7.55;56.71;98035.88;5027685;28;20434;-70
2022/12/01 08:23:32;;;;;;;28.10;18.23;;;;;;;7.58;56.31;98035.63;5038814;28;20438;-69
2022/12/01 08:26:02;;;;;;;30.70;18.30;;;;;;;7.63;56.00;98038.72;5030073;28;20447;-69
2022/12/01 08:28:27;;;;;;;32.40;18.07;;;;;;;7.67;56.04;98043.59;5043123;28;20202;-69
2022/12/01 08:30:53;;;;;;;34.33;19.40;;;;;;;7.65;56.25;98047.28;5022124;28;20428;-69
2022/12/01 08:33:18;;;;;;;33.27;20.60;;;;;;;7.63;55.71;98057.00;5019288;28;20216;-71
2022/12/01 08:35:44;;;;;;;30.53;17.80;;;;;;;7.55;56.56;98048.91;5036901;28;20428;-71
2022/12/01 08:38:09;;;;;;;29.90;18.40;;;;;;;7.48;56.23;98049.34;5022338;28;20191;-71
2022/12/01 08:40:35;;;;;;;32.83;17.80;;;;;;;7.47;56.47;98054.69;5040765;28;20233;-71
2022/12/01 08:43:00;;;;;;;27.87;17.40;;;;;;;7.49;56.26;98050.19;5029798;28;20186;-71
2022/12/01 08:45:26;;;;;;;34.53;20.23;;;;;;;7.52;56.65;98042.13;5041690;28;20214;-71
2022/12/01 08:47:52;;;;;;;31.30;18.50;;;;;;;7.55;56.29;98035.88;5025697;28;20227;-70
2022/12/01 08:50:18;;;;;;;33.63;19.00;;;;;;;7.59;56.32;98034.69;5030732;28;20283;-70
2022/12/01 08:52:44;;;;;;;29.97;18.07;;;;;;;7.59;56.27;98043.34;5036844;28;20458;-70
2022/12/01 08:55:10;;;;;;;30.20;18.13;;;;;;;7.55;56.32;98039.28;5040572;28;20216;-70
2022/12/01 08:57:35;;;;;;;29.93;18.67;;;;;;;7.53;56.26;98047.25;5039444;28;20418;-70
2022/12/01 09:00:01;;;;;;;28.60;17.57;;;;;;;7.50;55.85;98038.78;5029080;28;20798;-72
2022/12/01 09:02:27;;;;;;;28.37;17.23;;;;;;;7.48;56.23;98040.69;5038402;28;20183;-70
2022/12/01 09:04:52;;;;;;;28.77;17.50;;;;;;;7.45;56.60;98046.94;5032809;28;20479;-70
2022/12/01 09:07:18;;;;;;;27.47;17.27;;;;;;;7.43;55.59;98048.88;5028542;28;20184;-70
2022/12/01 09:09:44;;;;;;;29.03;16.97;;;;;;;7.41;55.95;98049.91;5029965;28;20192;-70
2022/12/01 09:12:11;;;;;;;31.57;19.13;;;;;;;7.39;56.48;98044.81;5054537;28;20565;-70
2022/12/01 09:14:38;;;;;;;29.90;18.13;;;;;;;7.35;56.50;98046.81;5039519;28;20500;-71
2022/12/01 09:17:04;;;;;;;28.77;16.70;;;;;;;7.41;56.89;98050.75;5015527;28;20962;-70
2022/12/01 09:19:30;;;;;;;30.20;18.43;;;;;;;7.47;56.81;98057.28;5041614;28;20456;-70
2022/12/01 09:21:55;;;;;;;32.30;18.07;;;;;;;7.40;56.57;98045.63;5021361;28;20181;-70
2022/12/01 09:24:21;;;;;;;31.83;18.40;;;;;;;7.44;56.58;98052.28;5040221;28;20201;-70
2022/12/01 09:26:46;;;;;;;32.83;17.60;;;;;;;7.48;56.69;98049.34;5023720;28;20246;-71
2022/12/01 09:29:13;;;;;;;30.33;17.27;;;;;;;7.49;57.02;98051.00;5041756;28;20191;-70
2022/12/01 09:31:39;;;;;;;30.97;17.40;;;;;;;7.51;56.34;98043.91;5033495;28;20222;-70
2022/12/01 09:34:07;;;;;;;29.83;17.73;;;;;;;7.54;56.72;98045.47;5032078;28;20987;-71
2022/12/01 09:36:34;;;;;;;29.13;18.00;;;;;;;7.53;56.85;98049.84;5033943;28;20206;-69
2022/12/01 09:39:00;;;;;;;27.57;17.80;;;;;;;7.59;57.24;98064.22;5039880;28;20798;-69
2022/12/01 09:41:31;;;;;;;32.30;19.80;;;;;;;7.55;57.31;98064.56;5041605;28;20460;-71
2022/12/01 09:44:12;;;;;;;29.23;18.90;;;;;;;7.60;56.44;98068.50;5033682;28;20508;-70
2022/12/01 09:46:54;;;;;;;32.00;18.93;;;;;;;7.61;56.32;98064.09;5023515;28;20434;-70
2022/12/01 09:49:27;;;;;;;28.30;17.13;;;;;;;7.58;56.17;98059.94;5036330;28;20429;-71
2022/12/01 09:51:53;;;;;;;31.10;17.93;;;;;;;7.61;56.11;98051.91;5037147;28;20522;-71
2022/12/01 09:54:18;;;;;;;36.03;18.60;;;;;;;7.64;56.48;98049.03;5045281;28;20457;-71
2022/12/01 09:56:49;;;;;;;26.77;16.57;;;;;;;7.66;56.50;98048.94;5043325;28;20815;-71
2022/12/01 09:59:22;;;;;;;30.80;17.93;;;;;;;7.75;56.60;98050.88;5035821;28;20186;-68
2022/12/01 10:01:53;;;;;;;28.07;16.77;;;;;;;7.77;56.19;98048.13;5039055;28;20430;-69
2022/12/01 10:04:43;;;;;;;29.00;17.77;;;;;;;7.75;56.09;98045.66;5040965;28;20427;-69
2022/12/01 10:07:25;;;;;;;28.27;17.70;;;;;;;7.71;56.56;98049.44;5034234;28;20445;-70
2022/12/01 10:10:01;;;;;;;32.10;18.33;;;;;;;7.75;56.66;98035.22;5027169;28;20512;-70
2022/12/01 10:12:31;;;;;;;31.83;18.93;;;;;;;7.75;56.39;98035.22;5039075;28;20429;-70
2022/12/01 10:15:14;;;;;;;24.47;15.50;;;;;;;7.67;55.85;98032.34;5038321;28;20803;-69
2022/12/01 10:17:42;;;;;;;30.47;17.90;;;;;;;7.67;56.04;98030.56;5028165;28;20425;-70
2022/12/01 10:20:34;;;;;;;29.50;15.60;;;;;;;7.63;56.36;98025.69;5027384;28;20430;-70
2022/12/01 10:23:38;;;;;;;28.63;16.80;;;;;;;7.65;56.85;98023.81;5036859;28;20430;-71
2022/12/01 10:26:35;;;;;;;25.47;16.57;;;;;;;7.64;56.73;98019.53;5007692;28;20972;-70
2022/12/01 10:29:03;;;;;;;32.17;16.87;;;;;;;7.62;56.33;98018.81;5043740;28;20932;-71
2022/12/01 10:31:52;;;;;;;37.23;17.23;;;;;;;7.65;56.69;98021.19;5034036;28;20421;-70
2022/12/01 10:34:31;;;;;;;30.10;17.87;;;;;;;7.65;56.91;98005.53;5038448;28;20470;-70
2022/12/01 10:36:57;;;;;;;27.00;17.30;;;;;;;7.69;57.18;98012.16;5028291;28;20453;-70
2022/12/01 10:39:25;;;;;;;32.40;18.30;;;;;;;7.71;56.55;98007.69;5038719;28;20829;-70
2022/12/01 10:41:51;;;;;;;29.37;17.70;;;;;;;7.77;56.62;98009.84;5030304;28;20426;-70
2022/12/01 10:44:17;;;;;;;32.53;18.03;;;;;;;7.87;56.43;97996.09;5039299;28;20421;-70
2022/12/01 10:46:51;;;;;;;31.13;18.33;;;;;;;7.89;56.41;97999.41;5037133;28;20290;-70
2022/12/01 10:49:18;;;;;;;31.60;18.90;;;;;;;7.83;57.12;97998.91;5005048;28;20802;-69
2022/12/01 10:51:55;;;;;;;29.50;17.70;;;;;;;7.87;57.25;98002.16;5035361;28;20508;-69
2022/12/01 10:54:24;;;;;;;28.27;17.40;;;;;;;7.87;57.06;97996.09;5035515;28;20466;-70
2022/12/01 10:56:54;;;;;;;33.63;18.53;;;;;;;7.83;56.65;98001.53;5036763;28;20447;-69
2022/12/01 10:59:33;;;;;;;30.30;18.40;;;;;;;7.86;57.23;98000.50;5033563;28;20791;-69
2022/12/01 11:02:00;;;;;;;30.03;17.97;;;;;;;7.90;56.68;98001.09;5036333;28;20511;-70
2022/12/01 11:04:35;;;;;;;28.93;18.77;;;;;;;7.83;57.45;97998.09;5035721;28;20864;-69
2022/12/01 11:07:02;;;;;;;25.77;16.60;;;;;;;7.77;56.93;97996.78;5034011;28;20447;-70
2022/12/01 11:09:28;;;;;;;31.90;18.53;;;;;;;7.80;57.40;97987.91;5030626;28;21000;-69
2022/12/01 11:11:59;;;;;;;25.93;16.27;;;;;;;7.79;56.45;97989.69;5035864;28;20423;-70
2022/12/01 11:14:47;;;;;;;27.53;17.40;;;;;;;7.75;56.78;97985.63;5028011;28;20476;-69
2022/12/01 11:17:30;;;;;;;26.57;17.23;;;;;;;7.78;56.83;97984.56;5019337;28;20877;-70
2022/12/01 11:19:56;;;;;;;29.07;17.03;;;;;;;7.81;56.53;97982.53;5042345;28;20578;-70
2022/12/01 11:22:22;;;;;;;31.33;17.57;;;;;;;7.82;56.73;97979.00;5029780;28;20450;-70
2022/12/01 11:24:59;;;;;;;25.40;17.30;;;;;;;7.85;56.87;97977.94;5038357;28;20187;-70
2022/12/01 11:27:31;;;;;;;29.70;17.73;;;;;;;7.87;56.87;97973.44;5030241;28;20187;-70
2022/12/01 11:30:03;;;;;;;26.93;17.37;;;;;;;7.89;57.02;97971.53;5027727;28;20429;-70
2022/12/01 11:32:31;;;;;;;31.70;18.67;;;;;;;7.94;56.68;97963.38;5023301;28;20447;-71